createdAt,value
2022-12-14T00:18:58.888Z,-3.3
2022-12-14T00:38:59.966Z,-3.4
2022-12-14T00:49:00.615Z,-3.3
2022-12-14T00:59:01.170Z,-3.4
2022-12-14T01:09:01.543Z,-3.1
2022-12-14T01:19:01.980Z,-2.9
2022-12-14T01:29:02.483Z,-2.9
2022-12-14T01:39:02.979Z,-3
2022-12-14T01:49:03.242Z,-3.1
2022-12-14T01:59:03.821Z,-3.2
2022-12-14T02:19:04.924Z,-3.4
2022-12-14T02:29:05.720Z,-3.4
2022-12-14T02:39:06.123Z,-3.3
2022-12-14T02:49:06.941Z,-3.7
2022-12-14T02:59:07.325Z,-3.8
2022-12-14T03:09:08.411Z,-4.1
2022-12-14T03:19:09.001Z,-4.3
2022-12-14T03:29:09.707Z,-4
2022-12-14T03:49:11.373Z,-3.9
2022-12-14T03:59:11.914Z,-3.8
2022-12-14T04:19:12.399Z,-3.6
2022-12-14T04:29:12.948Z,-3.6
2022-12-14T04:39:13.846Z,-3.6
2022-12-14T05:09:15.107Z,-3.5
2022-12-14T05:29:16.400Z,-3.7
2022-12-14T06:09:26.199Z,-3.5
2022-12-14T08:59:59.272Z,-3.3
2022-12-14T09:09:27.979Z,-3.3
2022-12-14T09:19:28.295Z,-3.1
2022-12-14T09:29:36.299Z,-3.1
2022-12-14T10:09:31.194Z,-3
2022-12-14T10:29:32.646Z,-2.9
2022-12-14T10:39:32.777Z,-2.8
2022-12-14T10:49:33.588Z,-2.7
2022-12-14T10:59:47.908Z,-2.7
2022-12-14T11:09:34.778Z,-2.6
2022-12-14T11:19:35.681Z,-2.3
2022-12-14T11:29:35.709Z,-2.2
2022-12-14T11:49:36.903Z,-1.7
2022-12-14T11:59:37.265Z,-1.3
2022-12-14T12:09:37.637Z,-1
2022-12-14T12:19:38.062Z,-1.1
2022-12-14T12:29:38.868Z,-1
2022-12-14T12:49:40.068Z,-0.5
2022-12-14T12:59:40.616Z,-0.2
2022-12-14T13:09:41.012Z,-0.5
2022-12-14T13:19:50.065Z,-0.6
2022-12-14T13:29:42.180Z,-0.6
2022-12-14T13:39:42.999Z,-0.3
2022-12-14T13:49:43.923Z,-0.2
2022-12-14T13:59:44.330Z,0.2
2022-12-14T14:09:45.248Z,0.4
2022-12-14T14:19:49.531Z,0.1
2022-12-14T14:39:56.850Z,-0.5
2022-12-14T14:49:46.214Z,-0.6
2022-12-14T14:59:50.603Z,-0.7
2022-12-14T15:09:47.508Z,-0.9
2022-12-14T15:19:48.531Z,-1.1
2022-12-14T15:29:49.293Z,-1.4
2022-12-14T15:39:49.355Z,-1.7
2022-12-14T15:49:51.318Z,-1.8
2022-12-14T16:09:50.642Z,-2.3
2022-12-14T16:29:51.772Z,-2.7
2022-12-14T16:39:52.771Z,-2.9
2022-12-14T16:49:52.810Z,-3.1
2022-12-14T16:59:53.090Z,-3.3
2022-12-14T17:09:53.293Z,-3.5
2022-12-14T17:29:54.559Z,-3.8
2022-12-14T17:39:55.226Z,-4
2022-12-14T17:49:55.723Z,-4.2
2022-12-14T17:59:56.128Z,-4.3
2022-12-14T18:10:03.509Z,-4.4
2022-12-14T18:20:02.718Z,-4.6
2022-12-14T18:30:02.840Z,-4.7
2022-12-14T18:40:03.756Z,-4.9
2022-12-14T18:50:04.416Z,-4.8
2022-12-14T19:10:05.165Z,-5
2022-12-14T19:20:05.735Z,-5.1
2022-12-14T19:30:06.590Z,-5.3
2022-12-14T20:20:09.484Z,-5.4
2022-12-14T20:30:10.039Z,-5.5
2022-12-14T20:40:10.174Z,-5.6
2022-12-14T20:50:10.935Z,-5.3
2022-12-14T21:00:11.275Z,-5.3
2022-12-14T21:10:11.834Z,-5.5
2022-12-14T21:30:12.437Z,-5.8
2022-12-14T21:40:13.407Z,-5.8
2022-12-14T21:40:18.587Z,-5.8
2022-12-14T21:50:19.022Z,-5.6
2022-12-14T22:00:19.705Z,-5.4
2022-12-14T22:10:27.665Z,-5.5
2022-12-14T22:20:21.450Z,-5.1
2022-12-14T22:30:23.974Z,-4.9
2022-12-14T22:40:23.254Z,-5.1
2022-12-14T22:50:31.257Z,-5.1
2022-12-14T23:00:24.571Z,-5.4
2022-12-14T23:10:24.907Z,-5.5
2022-12-14T23:30:25.547Z,-5.7
2022-12-14T23:40:26.046Z,-5.9
2022-12-14T23:50:26.632Z,-6
